Time;durP1;ratioP1;P1;durP2;ratioP2;P2;SDS_P1;SDS_P2;PMS_P1;PMS_P2;Temp;Humidity;BMP_temperature;BMP_pressure;BME280_temperature;BME280_humidity;BME280_pressure;Samples;Min_cycle;Max_cycle;Signal;HPM_P1;HPM_P2
2022/08/01 00:02:10;;;;;;;3.60;3.30;;;24.90;1.00;;;;;;5048148;28;20817;-58
2022/08/01 00:04:35;;;;;;;3.03;2.83;;;25.00;1.00;;;;;;5053342;28;20644;-57
2022/08/01 00:07:01;;;;;;;3.33;3.10;;;25.10;1.00;;;;;;5065114;28;20195;-58
2022/08/01 00:09:26;;;;;;;3.67;3.10;;;25.10;1.00;;;;;;5048703;28;20252;-58
2022/08/01 00:11:52;;;;;;;3.43;3.00;;;25.00;1.00;;;;;;5046675;28;20630;-57
2022/08/01 00:14:18;;;;;;;3.50;3.17;;;25.00;1.00;;;;;;5048710;28;20261;-60
2022/08/01 00:16:44;;;;;;;3.97;3.00;;;;;;;;;;5048324;28;20227;-58
2022/08/01 00:19:10;;;;;;;2.90;2.70;;;;;;;;;;5050734;28;20644;-59
2022/08/01 00:22:03;;;;;;;3.60;3.27;;;24.80;1.00;;;;;;5047413;28;20593;-59
2022/08/01 00:24:29;;;;;;;3.50;3.10;;;24.90;1.00;;;;;;5048012;28;20476;-57
2022/08/01 00:26:54;;;;;;;3.80;3.50;;;25.00;1.00;;;;;;5044909;28;20467;-58
2022/08/01 00:29:20;;;;;;;3.80;3.50;;;24.80;1.00;;;;;;5049402;28;20246;-58
2022/08/01 00:32:28;;;;;;;3.70;3.40;;;24.70;1.00;;;;;;5049726;28;20199;-58
2022/08/01 00:34:54;;;;;;;3.33;3.10;;;24.70;1.00;;;;;;5036438;28;20220;-58
2022/08/01 00:40:46;;;;;;;3.63;3.33;;;24.80;1.00;;;;;;5039674;28;20493;-57
2022/08/01 00:43:13;;;;;;;4.13;3.83;;;;;;;;;;5045117;28;20850;-57
2022/08/01 00:45:38;;;;;;;3.90;3.57;;;24.70;1.00;;;;;;5048062;28;20195;-58
2022/08/01 00:48:04;;;;;;;4.23;3.20;;;24.70;1.00;;;;;;5045092;28;20452;-57
2022/08/01 00:50:30;;;;;;;3.50;3.13;;;;;;;;;;5047883;28;20208;-58
2022/08/01 00:52:58;;;;;;;4.93;3.60;;;24.60;1.00;;;;;;5046184;28;20188;-58
2022/08/01 00:55:24;;;;;;;4.43;3.40;;;24.50;1.00;;;;;;5047100;28;20526;-58
2022/08/01 00:57:49;;;;;;;3.40;2.77;;;24.30;1.00;;;;;;5047196;28;21060;-57
2022/08/01 01:00:15;;;;;;;5.00;4.33;;;24.10;1.00;;;;;;5046916;28;20525;-57
2022/08/01 01:02:41;;;;;;;3.67;3.37;;;24.20;1.00;;;;;;5043950;28;20650;-58
2022/08/01 01:05:07;;;;;;;4.43;4.03;;;24.00;1.00;;;;;;5048911;28;20446;-58
2022/08/01 01:07:37;;;;;;;3.93;3.60;;;24.10;1.00;;;;;;5048808;28;20854;-58
2022/08/01 01:10:15;;;;;;;5.30;4.13;;;24.00;1.00;;;;;;5047170;28;20552;-58
2022/08/01 01:12:48;;;;;;;3.60;3.30;;;24.90;1.00;;;;;;5047464;28;20465;-58
2022/08/01 01:15:22;;;;;;;3.90;3.60;;;23.80;1.00;;;;;;5048078;28;20785;-59
2022/08/01 01:17:48;;;;;;;3.70;3.40;;;;;;;;;;5046815;28;20450;-59
2022/08/01 01:20:15;;;;;;;3.30;3.10;;;23.90;1.00;;;;;;5044747;28;20466;-58
2022/08/01 01:22:56;;;;;;;4.30;4.00;;;23.80;1.00;;;;;;5045906;28;21019;-58
2022/08/01 01:25:36;;;;;;;4.20;3.80;;;23.60;1.00;;;;;;5048638;28;20430;-57
2022/08/01 01:28:27;;;;;;;3.50;3.20;;;23.60;1.00;;;;;;5047728;28;22227;-58
2022/08/01 01:30:57;;;;;;;4.17;3.77;;;23.50;1.00;;;;;;5048102;28;20574;-57
2022/08/01 01:33:25;;;;;;;3.67;3.37;;;23.50;1.00;;;;;;5045879;28;20998;-58
2022/08/01 01:35:56;;;;;;;4.33;3.93;;;23.70;1.00;;;;;;5010335;28;1077750;-59
2022/08/01 01:38:25;;;;;;;3.83;3.53;;;23.60;1.00;;;;;;5047178;28;20188;-58
2022/08/01 01:40:52;;;;;;;4.53;3.23;;;23.60;1.00;;;;;;5046088;28;20445;-57
2022/08/01 01:43:19;;;;;;;4.03;3.73;;;23.70;1.00;;;;;;5046299;28;20450;-58
2022/08/01 01:45:47;;;;;;;3.50;3.30;;;23.70;1.00;;;;;;5047635;28;20450;-57
2022/08/01 01:48:16;;;;;;;6.50;3.57;;;23.70;1.00;;;;;;5048869;28;20541;-58
2022/08/01 01:50:45;;;;;;;3.97;3.63;;;23.70;1.00;;;;;;5048144;28;20465;-58
2022/08/01 01:53:14;;;;;;;3.87;3.50;;;23.80;1.00;;;;;;5047342;28;20532;-58
2022/08/01 01:55:43;;;;;;;4.67;4.27;;;23.60;1.00;;;;;;5046452;28;20461;-57
2022/08/01 02:01:35;;;;;;;4.77;4.40;;;23.60;1.00;;;;;;4970379;28;20459;-57
2022/08/01 02:04:02;;;;;;;5.17;4.00;;;23.70;1.00;;;;;;5047158;28;20473;-57
2022/08/01 02:06:29;;;;;;;4.20;3.80;;;23.60;1.00;;;;;;5043619;28;20441;-58
2022/08/01 02:08:55;;;;;;;5.40;4.30;;;23.70;1.00;;;;;;5043783;28;20966;-58
2022/08/01 02:11:21;;;;;;;4.53;4.13;;;23.70;1.00;;;;;;5042415;28;20463;-57
2022/08/01 02:13:58;;;;;;;4.23;3.83;;;23.60;1.00;;;;;;5045305;28;20454;-57
2022/08/01 02:16:27;;;;;;;4.73;4.33;;;23.60;1.00;;;;;;5060211;28;20442;-57
2022/08/01 02:18:53;;;;;;;4.90;4.50;;;23.50;1.00;;;;;;5046332;28;20446;-57
2022/08/01 02:21:26;;;;;;;4.77;4.37;;;23.60;1.00;;;;;;5046678;28;20478;-59
2022/08/01 02:23:53;;;;;;;6.57;4.37;;;23.60;1.00;;;;;;5044539;28;20446;-58
2022/08/01 02:26:19;;;;;;;5.50;4.40;;;23.70;1.00;;;;;;5048393;28;20450;-57
2022/08/01 02:28:52;;;;;;;4.87;4.30;;;23.70;1.00;;;;;;5048640;28;20443;-59
2022/08/01 02:31:21;;;;;;;4.90;4.43;;;23.70;1.00;;;;;;5051690;28;21002;-57
2022/08/01 02:33:58;;;;;;;5.27;4.67;;;23.70;1.00;;;;;;5049371;28;20950;-57
2022/08/01 02:36:27;;;;;;;4.47;4.07;;;23.80;1.00;;;;;;5050671;28;20546;-57
2022/08/01 02:38:56;;;;;;;4.10;3.80;;;23.80;1.00;;;;;;5049626;28;20800;-58
2022/08/01 02:41:25;;;;;;;4.60;3.87;;;23.90;1.00;;;;;;5050600;28;20439;-58
2022/08/01 02:43:52;;;;;;;4.40;4.10;;;23.90;1.00;;;;;;5054766;28;20780;-59
2022/08/01 02:46:27;;;;;;;4.43;4.03;;;24.00;1.00;;;;;;5060573;28;20447;-58
2022/08/01 02:48:55;;;;;;;4.00;3.70;;;23.90;1.00;;;;;;5049516;28;20437;-58
2022/08/01 02:51:23;;;;;;;3.80;3.40;;;23.90;1.00;;;;;;5049435;28;20959;-57
2022/08/01 02:53:50;;;;;;;4.27;3.97;;;23.90;1.00;;;;;;5051096;28;20449;-57
2022/08/01 02:56:18;;;;;;;4.50;4.10;;;23.90;1.00;;;;;;5047968;28;20455;-58
2022/08/01 02:58:45;;;;;;;4.57;4.27;;;23.90;1.00;;;;;;5050814;28;20447;-60
2022/08/01 03:01:13;;;;;;;4.30;3.50;;;23.90;1.00;;;;;;5049413;28;20443;-58
2022/08/01 03:03:39;;;;;;;5.13;4.10;;;24.00;1.00;;;;;;5050120;28;20438;-58
2022/08/01 03:06:06;;;;;;;3.63;3.43;;;23.90;1.00;;;;;;5048673;28;20580;-59
2022/08/01 03:08:34;;;;;;;4.63;4.10;;;23.80;1.00;;;;;;5052190;28;20442;-58
2022/08/01 03:11:01;;;;;;;3.87;3.53;;;23.70;1.00;;;;;;5050383;28;20474;-59
2022/08/01 03:13:28;;;;;;;4.27;3.97;;;23.80;1.00;;;;;;5050062;28;20438;-57
2022/08/01 03:15:55;;;;;;;4.43;4.13;;;23.70;1.00;;;;;;5048917;28;20944;-58
2022/08/01 03:18:24;;;;;;;5.97;3.73;;;23.80;1.00;;;;;;5051620;28;20474;-58
2022/08/01 03:20:52;;;;;;;4.10;3.80;;;23.80;1.00;;;;;;5049126;28;20878;-58
2022/08/01 03:23:20;;;;;;;4.30;4.00;;;23.70;1.00;;;;;;5049355;28;20446;-57
2022/08/01 03:25:47;;;;;;;5.63;4.27;;;23.80;1.00;;;;;;5050125;28;20971;-58
2022/08/01 03:28:14;;;;;;;4.03;3.73;;;;;;;;;;5051463;28;20529;-58
2022/08/01 03:30:42;;;;;;;4.80;4.50;;;23.60;1.00;;;;;;5049626;28;20481;-58
2022/08/01 03:33:08;;;;;;;4.23;3.80;;;23.60;1.00;;;;;;5049131;28;20449;-58
2022/08/01 03:35:39;;;;;;;4.33;3.93;;;23.70;1.00;;;;;;5048707;28;20489;-57
2022/08/01 03:38:08;;;;;;;4.50;4.10;;;23.80;1.00;;;;;;5049774;28;20450;-59
2022/08/01 03:41:02;;;;;;;4.63;3.60;;;23.80;1.00;;;;;;5050460;28;20529;-58
2022/08/01 03:43:35;;;;;;;4.93;4.47;;;23.90;1.00;;;;;;5041891;28;20454;-58
2022/08/01 03:46:07;;;;;;;4.43;3.93;;;23.90;1.00;;;;;;5047759;28;20947;-58
2022/08/01 03:48:37;;;;;;;5.00;4.30;;;23.80;1.00;;;;;;5049002;28;20450;-58
2022/08/01 03:51:06;;;;;;;4.47;4.07;;;23.80;1.00;;;;;;5049727;28;20476;-58
2022/08/01 03:53:33;;;;;;;4.73;4.33;;;23.80;1.00;;;;;;5049703;28;20483;-58
2022/08/01 03:56:02;;;;;;;4.47;3.67;;;23.80;1.00;;;;;;5047531;28;20460;-56
2022/08/01 03:58:29;;;;;;;3.93;3.63;;;23.70;1.00;;;;;;5048766;28;20435;-58
2022/08/01 04:00:56;;;;;;;4.07;3.77;;;23.80;1.00;;;;;;5049596;28;20477;-56
2022/08/01 04:03:22;;;;;;;4.50;4.10;;;23.80;1.00;;;;;;5049097;28;20438;-56
2022/08/01 04:05:48;;;;;;;5.43;3.20;;;23.70;1.00;;;;;;5050257;28;21023;-56
2022/08/01 04:08:13;;;;;;;4.13;3.83;;;23.70;1.00;;;;;;5049228;28;20504;-57
2022/08/01 04:10:39;;;;;;;4.00;3.60;;;23.70;1.00;;;;;;5050153;28;20211;-59
2022/08/01 04:13:05;;;;;;;4.20;3.80;;;23.70;1.00;;;;;;5049611;28;20184;-57
2022/08/01 04:15:30;;;;;;;4.70;4.30;;;23.80;1.00;;;;;;5062120;28;20184;-56
2022/08/01 04:17:56;;;;;;;4.47;4.07;;;23.70;1.00;;;;;;5049113;28;20226;-56
2022/08/01 04:20:22;;;;;;;4.53;4.20;;;23.70;1.00;;;;;;5049615;28;20190;-57
2022/08/01 04:22:47;;;;;;;5.43;3.77;;;23.70;1.00;;;;;;5048756;28;20192;-57
2022/08/01 04:25:27;;;;;;;4.70;4.20;;;23.80;1.00;;;;;;5049745;28;20236;-58
2022/08/01 04:27:54;;;;;;;4.63;4.23;;;23.80;1.00;;;;;;5050127;28;20223;-57
2022/08/01 04:30:25;;;;;;;3.73;3.43;;;23.90;1.00;;;;;;5048946;28;20465;-57
2022/08/01 04:32:54;;;;;;;5.30;4.10;;;24.00;1.00;;;;;;5050527;28;20455;-57
2022/08/01 04:35:21;;;;;;;4.70;4.13;;;23.90;1.00;;;;;;5048401;28;20489;-57
2022/08/01 04:37:48;;;;;;;4.30;3.90;;;23.90;1.00;;;;;;5049437;28;20453;-58
2022/08/01 04:40:14;;;;;;;3.90;3.63;;;24.10;1.00;;;;;;5048662;28;20503;-59
2022/08/01 04:42:40;;;;;;;4.97;3.60;;;24.20;1.00;;;;;;5054384;28;20461;-59
2022/08/01 04:45:08;;;;;;;4.10;3.80;;;24.40;1.00;;;;;;5055777;28;20443;-59
2022/08/01 04:47:35;;;;;;;4.50;4.10;;;20.50;1.00;;;;;;5057058;28;20561;-59
2022/08/01 04:50:06;;;;;;;5.30;3.87;;;24.30;1.00;;;;;;5052285;28;20847;-59
2022/08/01 04:52:34;;;;;;;4.47;4.17;;;24.20;1.00;;;;;;5057174;28;20918;-59
2022/08/01 04:55:00;;;;;;;4.73;4.20;;;24.00;1.00;;;;;;5051193;28;20959;-59
2022/08/01 04:57:26;;;;;;;4.60;4.20;;;23.90;1.00;;;;;;5055091;28;20456;-58
2022/08/01 04:59:56;;;;;;;5.17;4.77;;;23.80;1.00;;;;;;5053047;28;20341;-59
2022/08/01 05:02:22;;;;;;;4.40;4.10;;;;;;;;;;5051391;28;20271;-59
2022/08/01 05:04:48;;;;;;;6.93;4.77;;;23.70;1.00;;;;;;5056407;28;20736;-59
2022/08/01 05:07:15;;;;;;;5.17;4.30;;;23.70;1.00;;;;;;5053291;28;20450;-59
2022/08/01 05:09:45;;;;;;;4.80;4.40;;;23.60;1.00;;;;;;5062187;28;20491;-59
2022/08/01 05:12:11;;;;;;;4.83;4.33;;;23.50;1.00;;;;;;5053536;28;20462;-59
2022/08/01 05:14:37;;;;;;;5.03;4.33;;;23.40;1.00;;;;;;5050260;28;20469;-60
2022/08/01 05:17:06;;;;;;;5.53;4.50;;;23.30;1.00;;;;;;5051356;28;20265;-59
2022/08/01 05:19:36;;;;;;;4.83;4.33;;;23.30;1.00;;;;;;5047904;28;20191;-59
2022/08/01 05:22:04;;;;;;;5.40;4.40;;;23.10;1.00;;;;;;5048815;28;20446;-59
2022/08/01 05:24:38;;;;;;;5.50;4.30;;;23.10;1.00;;;;;;5057598;28;20454;-61
2022/08/01 05:27:04;;;;;;;6.63;4.87;;;22.90;1.00;;;;;;5051855;28;20547;-60
2022/08/01 05:29:30;;;;;;;6.10;4.43;;;23.00;1.00;;;;;;5066379;28;20525;-60
2022/08/01 05:31:56;;;;;;;6.83;4.13;;;23.20;1.00;;;;;;5052853;28;20885;-60
2022/08/01 05:34:22;;;;;;;6.03;4.20;;;23.40;1.00;;;;;;5057318;28;20228;-61
2022/08/01 05:36:48;;;;;;;4.90;4.10;;;23.60;1.00;;;;;;5050085;28;20448;-60
2022/08/01 05:39:14;;;;;;;7.30;3.67;;;23.60;1.00;;;;;;5058780;28;20202;-60
2022/08/01 05:41:41;;;;;;;8.73;3.20;;;23.70;1.00;;;;;;5052874;28;20175;-60
2022/08/01 05:44:06;;;;;;;4.40;4.03;;;23.60;1.00;;;;;;5048178;28;20447;-60
2022/08/01 05:46:33;;;;;;;4.20;3.80;;;23.70;1.00;;;;;;5049264;28;20480;-60
2022/08/01 05:49:03;;;;;;;4.63;4.03;;;23.70;1.00;;;;;;5049000;28;21032;-60
2022/08/01 05:51:29;;;;;;;4.73;3.57;;;23.70;1.00;;;;;;5048174;28;20476;-60
2022/08/01 05:53:55;;;;;;;5.80;3.67;;;23.70;1.00;;;;;;5048639;28;20750;-60
2022/08/01 05:56:21;;;;;;;5.13;3.73;;;23.80;1.00;;;;;;5047850;28;20495;-59
2022/08/01 05:58:48;;;;;;;3.57;3.37;;;23.60;1.00;;;;;;5049250;28;20438;-60
2022/08/01 06:01:13;;;;;;;4.37;3.67;;;23.40;1.00;;;;;;5048621;28;20509;-59
2022/08/01 06:03:39;;;;;;;3.70;3.40;;;23.50;1.00;;;;;;5048116;28;20486;-60
2022/08/01 06:06:05;;;;;;;3.63;3.43;;;23.40;1.00;;;;;;5057748;28;20184;-60
2022/08/01 06:08:31;;;;;;;5.30;3.80;;;23.30;1.00;;;;;;5051831;28;20207;-60
2022/08/01 06:10:56;;;;;;;5.73;3.50;;;23.70;1.00;;;;;;5053049;28;20666;-59
2022/08/01 06:13:22;;;;;;;4.00;3.40;;;23.40;1.00;;;;;;5052539;28;20447;-61
2022/08/01 06:15:48;;;;;;;3.70;3.40;;;23.50;1.00;;;;;;5052748;28;20188;-60
2022/08/01 06:18:14;;;;;;;3.87;3.57;;;;;;;;;;5054040;28;20614;-60
2022/08/01 06:20:40;;;;;;;3.97;3.60;;;23.40;1.00;;;;;;5051816;28;20837;-61
2022/08/01 06:23:06;;;;;;;3.60;3.30;;;;;;;;;;5052178;28;20464;-60
2022/08/01 06:25:33;;;;;;;5.43;3.87;;;;;;;;;;5050191;28;20461;-60
2022/08/01 06:27:59;;;;;;;3.87;3.57;;;23.40;1.00;;;;;;5050999;28;20446;-60
2022/08/01 06:30:25;;;;;;;4.13;3.70;;;;;;;;;;5057800;28;20515;-60
2022/08/01 06:32:50;;;;;;;4.13;3.73;;;23.40;1.00;;;;;;5051423;28;20279;-60
2022/08/01 06:35:16;;;;;;;4.10;3.80;;;23.40;1.00;;;;;;5052319;28;20643;-60
2022/08/01 06:37:42;;;;;;;5.00;4.20;;;23.50;1.00;;;;;;5051857;28;20238;-60
2022/08/01 06:40:09;;;;;;;4.67;3.97;;;23.50;1.00;;;;;;5053789;28;20191;-60
2022/08/01 06:42:36;;;;;;;4.53;4.00;;;23.40;1.00;;;;;;5056992;28;20191;-60
2022/08/01 06:45:06;;;;;;;4.47;4.07;;;23.40;1.00;;;;;;5055594;28;20485;-60
2022/08/01 06:47:32;;;;;;;4.47;4.07;;;23.30;1.00;;;;;;5070879;28;20494;-60
2022/08/01 06:49:58;;;;;;;4.67;3.90;;;23.30;1.00;;;;;;5053073;28;20471;-60
2022/08/01 06:52:24;;;;;;;3.63;3.33;;;23.30;1.00;;;;;;5051228;28;20421;-60
2022/08/01 06:54:50;;;;;;;3.83;3.17;;;23.40;1.00;;;;;;5054578;28;20192;-61
2022/08/01 06:57:15;;;;;;;3.53;3.27;;;23.40;1.00;;;;;;5053209;28;20450;-60
2022/08/01 06:59:41;;;;;;;6.00;4.00;;;23.30;1.00;;;;;;5052021;28;20194;-60
2022/08/01 07:02:07;;;;;;;4.33;4.03;;;23.10;1.00;;;;;;5051902;28;20188;-60
2022/08/01 07:04:33;;;;;;;5.23;4.80;;;22.80;1.00;;;;;;5054341;28;20176;-60
2022/08/01 07:06:59;;;;;;;5.27;4.87;;;22.50;1.00;;;;;;5051348;28;20442;-59
2022/08/01 07:09:26;;;;;;;6.00;5.57;;;22.40;1.00;;;;;;5052211;28;20271;-60
2022/08/01 07:11:52;;;;;;;6.87;6.27;;;22.20;1.00;;;;;;5053517;28;20451;-61
2022/08/01 07:14:18;;;;;;;5.50;5.10;;;22.20;1.00;;;;;;5048838;28;20537;-60
2022/08/01 07:16:44;;;;;;;5.53;5.10;;;22.20;1.00;;;;;;5052226;28;20453;-60
2022/08/01 07:19:10;;;;;;;5.73;5.33;;;22.20;1.00;;;;;;5067517;28;20807;-60
2022/08/01 07:21:38;;;;;;;5.57;5.10;;;;;;;;;;5050644;28;20447;-60
2022/08/01 07:24:04;;;;;;;5.47;5.03;;;22.50;1.00;;;;;;5051265;28;20188;-60
2022/08/01 07:26:30;;;;;;;5.70;5.20;;;;;;;;;;5050741;28;20501;-61
2022/08/01 07:28:56;;;;;;;7.80;5.80;;;22.50;1.00;;;;;;5050531;28;20504;-61
2022/08/01 07:31:22;;;;;;;5.93;5.43;;;22.50;1.00;;;;;;5049896;28;20870;-60
2022/08/01 07:33:48;;;;;;;6.80;5.43;;;22.50;1.00;;;;;;5051586;28;20196;-60
2022/08/01 07:36:14;;;;;;;5.50;5.10;;;;;;;;;;5054356;28;20509;-60
2022/08/01 07:38:40;;;;;;;6.57;5.93;;;23.00;1.00;;;;;;5052075;28;20478;-60
2022/08/01 07:41:05;;;;;;;6.10;5.60;;;23.10;1.00;;;;;;5062798;28;20450;-60
2022/08/01 07:43:31;;;;;;;6.70;6.10;;;23.00;1.00;;;;;;5049821;28;20733;-60
2022/08/01 07:45:57;;;;;;;8.80;5.33;;;23.10;1.00;;;;;;5050689;28;20278;-61
2022/08/01 07:48:24;;;;;;;5.30;4.90;;;;;;;;;;5062084;28;20214;-60
2022/08/01 07:50:51;;;;;;;5.83;5.43;;;;;;;;;;5061174;28;20215;-59
2022/08/01 07:53:17;;;;;;;6.27;5.77;;;23.70;1.00;;;;;;5049858;28;20447;-59
2022/08/01 07:55:42;;;;;;;5.83;5.33;;;23.90;1.00;;;;;;5055722;28;20974;-60
2022/08/01 07:58:08;;;;;;;5.23;4.83;;;24.30;1.00;;;;;;5053531;28;20450;-60
2022/08/01 08:00:33;;;;;;;5.80;5.33;;;24.60;1.00;;;;;;5050373;28;20314;-60
2022/08/01 08:02:59;;;;;;;6.33;5.47;;;;;;;;;;5050684;28;20241;-61
2022/08/01 08:05:28;;;;;;;4.60;4.30;;;25.20;1.00;;;;;;5049262;28;20199;-62
2022/08/01 08:07:53;;;;;;;4.83;4.43;;;25.30;1.00;;;;;;5050151;28;20545;-61
2022/08/01 08:10:19;;;;;;;4.37;4.07;;;;;;;;;;5049818;28;20520;-60
2022/08/01 08:12:46;;;;;;;5.27;3.60;;;25.50;1.00;;;;;;5049626;28;20180;-60
2022/08/01 08:15:12;;;;;;;4.60;3.77;;;25.70;1.00;;;;;;5050753;28;20440;-60
2022/08/01 08:17:38;;;;;;;3.80;3.50;;;25.50;1.00;;;;;;5050353;28;20423;-60
2022/08/01 08:20:09;;;;;;;3.97;3.67;;;25.50;1.00;;;;;;5050038;28;20995;-61
2022/08/01 08:22:35;;;;;;;3.80;3.40;;;;;;;;;;5056395;28;20461;-60
2022/08/01 08:25:00;;;;;;;3.43;3.13;;;25.10;1.00;;;;;;5050373;28;20799;-61
2022/08/01 08:27:26;;;;;;;3.80;3.50;;;25.00;1.00;;;;;;5057965;28;20867;-59
2022/08/01 08:29:52;;;;;;;8.57;2.87;;;25.20;1.00;;;;;;5056811;28;20298;-60
2022/08/01 08:32:17;;;;;;;3.20;3.00;;;25.40;1.00;;;;;;5054386;28;20564;-60
2022/08/01 08:34:43;;;;;;;4.10;2.57;;;25.70;1.00;;;;;;5053986;28;20223;-59
2022/08/01 08:37:09;;;;;;;5.03;2.77;;;25.80;1.00;;;;;;5048708;28;20187;-60
2022/08/01 08:39:36;;;;;;;3.20;3.00;;;25.70;1.00;;;;;;5050107;28;20446;-60
2022/08/01 08:42:06;;;;;;;2.73;2.53;;;25.40;1.00;;;;;;5054015;28;20274;-60
2022/08/01 08:44:32;;;;;;;2.80;2.60;;;25.30;1.00;;;;;;5051853;28;20413;-60
2022/08/01 08:47:00;;;;;;;4.60;2.47;;;25.10;1.00;;;;;;5050991;28;20776;-62
2022/08/01 08:49:27;;;;;;;2.90;2.70;;;25.00;1.00;;;;;;5062241;28;20246;-60
2022/08/01 08:51:57;;;;;;;3.47;2.23;;;25.10;1.00;;;;;;5049564;28;20470;-60
2022/08/01 08:54:24;;;;;;;3.83;3.10;;;25.50;1.00;;;;;;5049710;28;20939;-60
2022/08/01 08:56:51;;;;;;;3.33;3.03;;;25.70;1.00;;;;;;5048595;28;20796;-60
2022/08/01 08:59:17;;;;;;;3.00;2.70;;;;;;;;;;5060180;28;20491;-60
2022/08/01 09:01:44;;;;;;;2.67;2.47;;;25.90;1.00;;;;;;5061622;28;20413;-60
2022/08/01 09:04:10;;;;;;;1.90;1.80;;;25.80;1.00;;;;;;5049942;28;20421;-60
2022/08/01 09:06:36;;;;;;;2.53;2.23;;;26.00;1.00;;;;;;5049796;28;20851;-62
2022/08/01 09:09:03;;;;;;;2.53;2.33;;;25.90;1.00;;;;;;5049739;28;20404;-60
2022/08/01 09:11:29;;;;;;;2.30;2.10;;;25.90;1.00;;;;;;5047001;28;21687;-60
2022/08/01 09:14:26;;;;;;;3.30;1.83;;;25.90;1.00;;;;;;5048132;28;20927;-63
2022/08/01 09:17:08;;;;;;;2.60;2.40;;;26.00;1.00;;;;;;5045331;28;20199;-60
2022/08/01 09:19:38;;;;;;;4.10;2.50;;;25.90;1.00;;;;;;5049302;28;20904;-60
2022/08/01 09:22:07;;;;;;;2.43;2.30;;;25.60;1.00;;;;;;5049502;28;20458;-61
2022/08/01 09:24:33;;;;;;;2.70;2.50;;;25.30;1.00;;;;;;5050499;28;20430;-60
2022/08/01 09:27:00;;;;;;;3.03;2.83;;;25.40;1.00;;;;;;5069546;28;20441;-60
2022/08/01 09:29:29;;;;;;;3.63;3.37;;;25.70;1.00;;;;;;5059118;28;20755;-61
2022/08/01 09:31:56;;;;;;;3.33;3.03;;;25.70;1.00;;;;;;5049340;28;20473;-60
2022/08/01 09:34:30;;;;;;;3.07;2.77;;;25.70;1.00;;;;;;5057466;28;20435;-60
2022/08/01 09:37:00;;;;;;;4.10;3.30;;;25.60;1.00;;;;;;5061006;28;20948;-60
2022/08/01 09:39:28;;;;;;;4.97;2.90;;;25.70;1.00;;;;;;5101816;28;20450;-60
2022/08/01 09:41:57;;;;;;;3.63;3.33;;;26.20;1.00;;;;;;5060351;28;20442;-57
2022/08/01 09:44:40;;;;;;;3.07;2.77;;;26.50;1.00;;;;;;5050044;28;20462;-60
2022/08/01 09:47:06;;;;;;;4.17;2.40;;;26.50;1.00;;;;;;5052721;28;20522;-62
2022/08/01 09:49:35;;;;;;;2.93;2.73;;;26.20;1.00;;;;;;5053248;28;20409;-60
2022/08/01 09:52:22;;;;;;;2.67;2.23;;;26.20;1.00;;;;;;5052060;28;20417;-60
2022/08/01 09:54:58;;;;;;;2.47;2.37;;;26.70;1.00;;;;;;5052464;28;20446;-59
2022/08/01 09:57:24;;;;;;;2.60;2.17;;;26.90;1.00;;;;;;5052916;28;20927;-59
2022/08/01 09:59:55;;;;;;;2.63;2.43;;;26.70;1.00;;;;;;5053460;28;20434;-62
2022/08/01 10:02:37;;;;;;;2.33;2.00;;;27.00;1.00;;;;;;5052714;28;20489;-60
2022/08/01 10:05:06;;;;;;;2.00;1.90;;;27.30;1.00;;;;;;5051657;28;20446;-60
2022/08/01 10:07:32;;;;;;;2.33;2.13;;;27.50;1.00;;;;;;5052633;28;20480;-60
2022/08/01 10:10:12;;;;;;;2.33;2.13;;;27.20;1.00;;;;;;5051816;28;20437;-60
2022/08/01 10:12:40;;;;;;;2.53;2.33;;;27.10;1.00;;;;;;5052417;28;20179;-60
2022/08/01 10:15:06;;;;;;;2.90;2.27;;;27.20;1.00;;;;;;5052270;28;20847;-60
2022/08/01 10:17:33;;;;;;;2.83;1.80;;;27.10;1.00;;;;;;5053072;28;20433;-60
2022/08/01 10:20:02;;;;;;;4.23;2.07;;;27.00;1.00;;;;;;5052277;28;20446;-60
2022/08/01 10:22:30;;;;;;;2.27;2.07;;;26.80;1.00;;;;;;5052930;28;20420;-60
2022/08/01 10:24:58;;;;;;;5.10;2.27;;;;;;;;;;5053108;28;21072;-60
2022/08/01 10:27:25;;;;;;;2.13;2.03;;;26.70;1.00;;;;;;5052493;28;20431;-60
2022/08/01 10:29:51;;;;;;;2.40;1.83;;;;;;;;;;5053082;28;20484;-60
2022/08/01 10:32:17;;;;;;;2.60;1.77;;;27.10;1.00;;;;;;5053282;28;20434;-60
2022/08/01 10:34:43;;;;;;;1.80;1.70;;;;;;;;;;5052465;28;20516;-60
2022/08/01 10:37:10;;;;;;;1.60;1.50;;;26.80;1.00;;;;;;5052045;28;20545;-60
2022/08/01 10:39:36;;;;;;;2.00;1.90;;;26.70;1.00;;;;;;5062394;28;20438;-60
2022/08/01 10:42:02;;;;;;;2.13;1.73;;;26.60;1.00;;;;;;5072942;28;20400;-61
2022/08/01 10:44:30;;;;;;;1.73;1.63;;;26.70;1.00;;;;;;5053301;28;20766;-61
2022/08/01 10:47:11;;;;;;;2.30;1.73;;;26.80;1.00;;;;;;5052595;28;20445;-61
2022/08/01 10:49:47;;;;;;;1.50;1.40;;;26.50;1.00;;;;;;5052188;28;20438;-60
2022/08/01 10:52:20;;;;;;;1.40;1.30;;;26.20;1.00;;;;;;5052154;28;20447;-59
2022/08/01 10:54:46;;;;;;;1.57;1.30;;;26.30;1.00;;;;;;5054233;28;20430;-60
2022/08/01 10:57:13;;;;;;;1.40;1.30;;;26.40;1.00;;;;;;5069455;28;20546;-60
2022/08/01 10:59:53;;;;;;;2.00;1.83;;;26.40;1.00;;;;;;5072477;28;20958;-60
2022/08/01 11:02:31;;;;;;;2.00;1.40;;;26.40;1.00;;;;;;5072143;28;20941;-60
2022/08/01 11:05:17;;;;;;;1.10;1.00;;;26.50;1.00;;;;;;5072036;28;20430;-60
2022/08/01 11:07:52;;;;;;;1.63;0.80;;;26.60;1.00;;;;;;5072108;28;20440;-60
2022/08/01 11:10:38;;;;;;;2.03;1.00;;;26.70;1.00;;;;;;5072379;28;20457;-60
2022/08/01 11:13:07;;;;;;;1.60;1.17;;;26.80;1.00;;;;;;5072047;28;20848;-60
2022/08/01 11:15:35;;;;;;;1.07;0.80;;;26.80;1.00;;;;;;5072367;28;20411;-60
2022/08/01 11:18:26;;;;;;;1.83;1.27;;;27.30;1.00;;;;;;5069531;28;20478;-61
2022/08/01 11:20:58;;;;;;;2.47;1.40;;;27.40;1.00;;;;;;5051806;28;20423;-61
2022/08/01 11:23:25;;;;;;;2.30;1.50;;;28.00;1.00;;;;;;5052555;28;20434;-62
2022/08/01 11:25:52;;;;;;;4.60;0.93;;;;;;;;;;5060999;28;20498;-60
2022/08/01 11:28:23;;;;;;;3.70;2.83;;;28.00;1.00;;;;;;5072402;28;20448;-61
2022/08/01 11:31:14;;;;;;;1.93;1.17;;;28.00;1.00;;;;;;5071449;28;20455;-61
2022/08/01 11:33:47;;;;;;;3.80;3.13;;;28.00;1.00;;;;;;5052115;28;20446;-60
2022/08/01 11:36:15;;;;;;;1.70;1.30;;;28.50;1.00;;;;;;5051890;28;20470;-61
2022/08/01 11:38:48;;;;;;;3.10;0.90;;;28.50;1.00;;;;;;5051895;28;20413;-60
2022/08/01 11:41:34;;;;;;;1.73;0.80;;;28.30;1.00;;;;;;5051766;28;20936;-62
2022/08/01 11:44:18;;;;;;;2.80;0.80;;;28.00;1.00;;;;;;5049522;28;20434;-61
2022/08/01 11:47:09;;;;;;;1.13;1.00;;;27.60;1.00;;;;;;5051596;28;20416;-61
2022/08/01 11:49:40;;;;;;;1.10;0.80;;;27.10;1.00;;;;;;5051661;28;20416;-60
2022/08/01 11:52:05;;;;;;;1.27;1.17;;;26.90;1.00;;;;;;5048717;28;20482;-60
2022/08/01 11:54:34;;;;;;;3.10;1.30;;;26.70;1.00;;;;;;5051511;28;20455;-60
2022/08/01 11:57:08;;;;;;;3.20;1.17;;;26.70;1.00;;;;;;5050885;28;20518;-62
2022/08/01 11:59:45;;;;;;;3.80;1.23;;;26.60;1.00;;;;;;5050563;28;20420;-60
2022/08/01 12:02:29;;;;;;;1.73;1.33;;;26.50;1.00;;;;;;5048649;28;20747;-62
2022/08/01 12:04:55;;;;;;;8.43;1.40;;;26.80;1.00;;;;;;5051359;28;20947;-61
2022/08/01 12:07:23;;;;;;;1.33;1.23;;;27.30;1.00;;;;;;5050158;28;20413;-61
2022/08/01 12:09:57;;;;;;;1.20;1.10;;;28.00;1.00;;;;;;5049645;28;20428;-61
2022/08/01 12:12:23;;;;;;;4.80;1.30;;;;;;;;;;5050140;28;20974;-60
2022/08/01 12:14:54;;;;;;;3.83;1.50;;;28.60;1.00;;;;;;5050008;28;20454;-61
2022/08/01 12:17:28;;;;;;;4.03;1.43;;;28.80;1.00;;;;;;5050801;28;20454;-61
2022/08/01 12:19:53;;;;;;;2.20;1.50;;;29.30;1.00;;;;;;5065300;28;21013;-60
2022/08/01 12:22:23;;;;;;;3.40;1.40;;;29.00;1.00;;;;;;5049393;28;20421;-60
2022/08/01 12:24:48;;;;;;;1.30;1.13;;;29.00;1.00;;;;;;5048298;28;20901;-60
2022/08/01 12:27:25;;;;;;;1.30;1.10;;;28.70;1.00;;;;;;5050483;28;20417;-60
2022/08/01 12:29:50;;;;;;;2.23;1.30;;;28.40;1.00;;;;;;5050943;28;20672;-60
2022/08/01 12:32:31;;;;;;;1.80;1.27;;;28.20;1.00;;;;;;5049499;28;20434;-61
2022/08/01 12:35:08;;;;;;;1.57;1.33;;;27.70;1.00;;;;;;5050217;28;20219;-62
2022/08/01 12:38:16;;;;;;;1.80;1.20;;;27.80;1.00;;;;;;5050489;28;20446;-60
2022/08/01 12:40:44;;;;;;;2.70;1.20;;;27.90;1.00;;;;;;5039884;28;20518;-60
2022/08/01 12:43:14;;;;;;;2.10;1.20;;;28.00;1.00;;;;;;5050584;28;20543;-60
2022/08/01 12:45:43;;;;;;;1.77;1.10;;;28.30;1.00;;;;;;5050156;28;20442;-61
2022/08/01 12:48:11;;;;;;;1.20;1.10;;;28.40;1.00;;;;;;5050815;28;20431;-61
2022/08/01 12:50:38;;;;;;;1.67;1.17;;;28.70;1.00;;;;;;5050571;28;20945;-61
2022/08/01 12:53:05;;;;;;;1.20;1.10;;;28.60;1.00;;;;;;5049981;28;20445;-61
2022/08/01 12:55:31;;;;;;;1.70;1.20;;;;;;;;;;5049131;28;20421;-60
2022/08/01 12:58:10;;;;;;;3.00;1.40;;;27.70;1.00;;;;;;5050104;28;20919;-61
2022/08/01 13:00:39;;;;;;;1.53;1.10;;;27.80;1.00;;;;;;5050919;28;20564;-60
2022/08/01 13:03:12;;;;;;;0.93;0.83;;;28.10;1.00;;;;;;5050050;28;20435;-60
2022/08/01 13:05:52;;;;;;;1.77;0.90;;;28.40;1.00;;;;;;5050271;28;20829;-60
2022/08/01 13:08:18;;;;;;;1.80;0.90;;;28.30;1.00;;;;;;5050047;28;20800;-60
2022/08/01 13:10:45;;;;;;;2.23;1.27;;;28.20;1.00;;;;;;5050189;28;20541;-60
2022/08/01 13:13:12;;;;;;;1.13;1.03;;;27.90;1.00;;;;;;5048531;28;20437;-61
2022/08/01 13:15:40;;;;;;;1.37;1.10;;;27.90;1.00;;;;;;5049980;28;20457;-60
2022/08/01 13:18:26;;;;;;;1.43;1.17;;;27.90;1.00;;;;;;5050056;28;20510;-60
2022/08/01 13:21:17;;;;;;;1.40;1.07;;;28.10;1.00;;;;;;5049687;28;20450;-60
2022/08/01 13:24:10;;;;;;;1.97;0.80;;;28.30;1.00;;;;;;5050169;28;20435;-61